Time;durP1;ratioP1;P1;durP2;ratioP2;P2;SDS_P1;SDS_P2;PMS_P1;PMS_P2;Temp;Humidity;BMP_temperature;BMP_pressure;BME280_temperature;BME280_humidity;BME280_pressure;Samples;Min_cycle;Max_cycle;Signal;HPM_P1;HPM_P2
2021/09/18 00:00:37;;;;;;;33.42;21.60;;;;;;;15.64;85.90;101783.06;5053720;28;20047;-66
2021/09/18 00:03:02;;;;;;;32.72;20.15;;;;;;;15.57;86.34;101782.50;5051248;28;20481;-65
2021/09/18 00:05:28;;;;;;;34.42;21.42;;;;;;;15.49;86.60;101781.16;5053790;28;20063;-61
2021/09/18 00:07:53;;;;;;;31.80;21.27;;;;;;;15.40;86.67;101786.00;5053836;28;20032;-60
2021/09/18 00:10:18;;;;;;;40.17;23.65;;;;;;;15.32;86.97;101782.88;5053727;28;20074;-59
2021/09/18 00:12:44;;;;;;;34.08;21.17;;;;;;;15.22;87.32;101779.78;5052812;28;20374;-69
2021/09/18 00:15:09;;;;;;;37.78;22.85;;;;;;;15.16;87.49;101774.75;5053420;28;20028;-69
2021/09/18 00:17:35;;;;;;;38.78;23.42;;;;;;;15.10;87.90;101777.72;5053387;28;20017;-63
2021/09/18 00:20:01;;;;;;;34.17;21.92;;;;;;;15.06;88.01;101774.34;5053296;28;20044;-61
2021/09/18 00:22:27;;;;;;;38.30;23.30;;;;;;;15.03;88.08;101773.63;5052976;28;20052;-75
2021/09/18 00:24:52;;;;;;;38.80;23.92;;;;;;;14.96;88.31;101788.19;5053003;28;20078;-70
2021/09/18 00:27:18;;;;;;;40.17;24.45;;;;;;;14.86;88.57;101775.31;5052932;28;20070;-60
2021/09/18 00:29:43;;;;;;;39.88;23.80;;;;;;;14.80;88.92;101780.94;5053213;28;20369;-63
2021/09/18 00:32:08;;;;;;;45.85;23.73;;;;;;;14.72;89.04;101781.28;5051893;28;20078;-60
2021/09/18 00:34:33;;;;;;;41.40;24.05;;;;;;;14.66;89.34;101778.91;5052071;28;20021;-60
2021/09/18 00:36:59;;;;;;;39.38;24.85;;;;;;;14.61;89.59;101780.06;5053207;28;20033;-72
2021/09/18 00:39:24;;;;;;;39.10;22.88;;;;;;;14.58;89.55;101776.56;5053005;28;20025;-60
2021/09/18 00:41:49;;;;;;;39.72;23.63;;;;;;;14.56;89.77;101777.59;5051943;28;20414;-60
2021/09/18 00:44:17;;;;;;;42.22;25.02;;;;;;;14.55;89.83;101779.41;5052084;28;20029;-57
2021/09/18 00:46:48;;;;;;;42.38;24.27;;;;;;;14.54;89.94;101783.00;5052611;28;20107;-59
2021/09/18 00:49:13;;;;;;;37.08;22.60;;;;;;;14.56;90.20;101782.91;5052596;28;20037;-59
2021/09/18 00:51:39;;;;;;;37.92;23.63;;;;;;;14.62;89.94;101781.78;5053109;28;20457;-59
2021/09/18 00:54:06;;;;;;;38.72;23.95;;;;;;;14.63;89.53;101780.81;5052552;28;20397;-60
2021/09/18 00:56:32;;;;;;;36.80;23.60;;;;;;;14.64;89.53;101780.81;5052190;28;20033;-60
2021/09/18 00:58:57;;;;;;;44.75;26.35;;;;;;;14.64;89.50;101780.81;5052416;28;20025;-59
2021/09/18 01:01:23;;;;;;;41.63;25.20;;;;;;;14.65;89.49;101773.66;5052541;28;20420;-75
2021/09/18 01:03:48;;;;;;;42.33;26.20;;;;;;;14.61;89.56;101782.72;5052490;28;20461;-67
2021/09/18 01:06:14;;;;;;;48.17;27.20;;;;;;;14.58;89.79;101778.41;5051425;28;20059;-59
2021/09/18 01:08:41;;;;;;;47.83;28.25;;;;;;;14.60;90.00;101781.84;5052405;28;20033;-59
2021/09/18 01:11:06;;;;;;;44.35;26.27;;;;;;;14.60;90.14;101781.84;5052439;28;20025;-61
2021/09/18 01:13:33;;;;;;;45.63;26.13;;;;;;;14.63;90.19;101775.50;5052634;28;20531;-61
2021/09/18 01:15:59;;;;;;;47.58;28.17;;;;;;;14.65;90.38;101776.31;5051703;28;20024;-68
2021/09/18 01:18:24;;;;;;;49.85;28.58;;;;;;;14.72;90.36;101775.13;5052509;28;20028;-68
2021/09/18 01:20:50;;;;;;;44.70;26.65;;;;;;;14.79;90.12;101779.19;5052067;28;20086;-60
2021/09/18 01:23:22;;;;;;;42.20;25.92;;;;;;;14.86;89.80;101771.75;5052353;28;20033;-62
2021/09/18 01:25:48;;;;;;;42.38;26.38;;;;;;;14.89;89.35;101769.81;5052157;28;20025;-60
2021/09/18 01:28:13;;;;;;;43.05;25.95;;;;;;;14.91;89.22;101778.63;5051734;28;20032;-59
2021/09/18 01:30:39;;;;;;;39.17;24.63;;;;;;;14.94;89.07;101772.28;5052202;28;20369;-61
2021/09/18 01:33:06;;;;;;;40.40;24.73;;;;;;;14.92;89.30;101768.81;5052409;28;20025;-59
2021/09/18 01:35:32;;;;;;;42.55;24.95;;;;;;;14.89;89.30;101761.81;5051903;28;20396;-62
2021/09/18 01:37:59;;;;;;;43.40;26.42;;;;;;;14.86;89.46;101769.97;5051346;28;20575;-60
2021/09/18 01:40:29;;;;;;;43.00;25.65;;;;;;;14.83;89.60;101761.25;5052224;28;20040;-58
2021/09/18 01:42:56;;;;;;;39.63;25.55;;;;;;;14.78;89.63;101761.47;5052204;28;20055;-62
2021/09/18 01:45:22;;;;;;;46.15;27.25;;;;;;;14.73;90.09;101760.81;5051748;28;20021;-59
2021/09/18 01:47:54;;;;;;;45.75;27.25;;;;;;;14.64;89.97;101754.16;5053162;28;20029;-65
2021/09/18 01:50:25;;;;;;;51.30;27.65;;;;;;;14.55;90.51;101755.41;5052048;28;20032;-59
2021/09/18 01:52:52;;;;;;;45.07;27.60;;;;;;;14.50;90.47;101757.44;5052298;28;20025;-59
2021/09/18 01:55:18;;;;;;;48.63;26.27;;;;;;;14.48;90.84;101755.78;5055610;28;20453;-59
2021/09/18 01:57:49;;;;;;;45.45;26.58;;;;;;;14.45;90.93;101767.44;5055407;28;20029;-59
2021/09/18 02:00:16;;;;;;;50.53;28.05;;;;;;;14.42;91.75;101765.78;5055481;28;20029;-59
2021/09/18 02:02:41;;;;;;;48.70;27.20;;;;;;;14.45;91.54;101771.88;5056077;28;20036;-59
2021/09/18 02:05:08;;;;;;;46.33;26.10;;;;;;;14.47;90.55;101765.56;5055635;28;20528;-61
2021/09/18 02:07:33;;;;;;;46.30;25.67;;;;;;;14.43;90.41;101763.97;5055663;28;20029;-58
2021/09/18 02:09:59;;;;;;;51.45;28.73;;;;;;;14.35;90.61;101764.31;5055830;28;20032;-60
2021/09/18 02:12:24;;;;;;;54.03;28.27;;;;;;;14.29;90.79;101761.09;5055418;28;20040;-59
2021/09/18 02:14:50;;;;;;;49.53;27.75;;;;;;;14.24;90.90;101762.13;5055566;28;20465;-60
2021/09/18 02:17:15;;;;;;;47.58;27.25;;;;;;;14.19;90.92;101753.50;5055430;28;20029;-60
2021/09/18 02:19:41;;;;;;;51.30;28.33;;;;;;;14.16;91.16;101758.13;5055619;28;20017;-59
2021/09/18 02:22:06;;;;;;;46.95;27.67;;;;;;;14.09;91.18;101755.72;5055117;28;20049;-61
2021/09/18 02:24:31;;;;;;;56.10;29.90;;;;;;;14.02;91.36;101761.41;5055841;28;20441;-60
2021/09/18 02:26:57;;;;;;;61.10;31.33;;;;;;;13.97;92.25;101760.75;5055527;28;20457;-60
2021/09/18 02:29:22;;;;;;;52.13;27.77;;;;;;;13.95;92.02;101766.09;5055536;28;20029;-59
2021/09/18 02:31:47;;;;;;;50.00;28.05;;;;;;;13.97;91.87;101760.75;5055342;28;20488;-60
2021/09/18 02:34:13;;;;;;;57.08;29.08;;;;;;;13.97;91.70;101758.06;5054918;28;20103;-60
2021/09/18 02:36:38;;;;;;;53.95;30.15;;;;;;;13.94;91.98;101761.75;5055392;28;20087;-60
2021/09/18 02:39:03;;;;;;;54.50;29.98;;;;;;;13.93;92.05;101758.19;5055100;28;20032;-59
2021/09/18 02:41:29;;;;;;;58.20;31.13;;;;;;;13.95;92.20;101751.94;5055008;28;20037;-62
2021/09/18 02:43:54;;;;;;;58.97;32.65;;;;;;;13.95;92.56;101757.25;5055062;28;20108;-61
2021/09/18 02:46:19;;;;;;;49.55;29.35;;;;;;;13.98;91.94;101752.69;5054989;28;20120;-59
2021/09/18 02:48:45;;;;;;;49.90;27.98;;;;;;;13.98;91.64;101746.47;5054788;28;20070;-76
2021/09/18 02:51:10;;;;;;;56.88;29.13;;;;;;;13.92;91.50;101740.47;5055121;28;20033;-60
2021/09/18 02:53:35;;;;;;;52.10;28.42;;;;;;;13.88;91.43;101728.25;5054611;28;20029;-59
2021/09/18 02:56:02;;;;;;;55.72;30.00;;;;;;;13.80;92.02;101734.84;5054176;28;20036;-59
2021/09/18 02:58:27;;;;;;;57.10;31.45;;;;;;;13.74;92.05;101733.31;5054988;28;20113;-66
2021/09/18 03:00:52;;;;;;;56.88;31.10;;;;;;;13.68;92.30;101731.81;5054425;28;20532;-61
2021/09/18 03:03:18;;;;;;;59.90;30.23;;;;;;;13.64;92.62;101735.50;5054700;28;20025;-60
2021/09/18 03:05:43;;;;;;;53.50;29.23;;;;;;;13.63;92.51;101743.56;5053828;28;20106;-60
2021/09/18 03:08:08;;;;;;;53.13;28.83;;;;;;;13.58;92.79;101735.78;5054171;28;20027;-59
2021/09/18 03:10:34;;;;;;;56.15;30.35;;;;;;;13.56;92.45;101735.84;5054693;28;20029;-73
2021/09/18 03:12:59;;;;;;;57.65;31.65;;;;;;;13.53;92.63;101743.09;5054449;28;20029;-64
2021/09/18 03:15:24;;;;;;;60.28;31.52;;;;;;;13.51;93.18;101745.81;5054370;28;20027;-61
2021/09/18 03:17:50;;;;;;;53.65;29.85;;;;;;;13.50;93.01;101744.09;5054225;28;20029;-76
2021/09/18 03:20:15;;;;;;;59.25;30.23;;;;;;;13.49;93.12;101747.69;5054202;28;20049;-59
2021/09/18 03:22:40;;;;;;;55.92;29.23;;;;;;;13.50;92.59;101744.09;5053920;28;20486;-59
2021/09/18 03:25:07;;;;;;;51.42;28.40;;;;;;;13.47;92.47;101732.72;5054455;28;20076;-66
2021/09/18 03:27:33;;;;;;;56.88;30.52;;;;;;;13.42;92.59;101743.56;5053817;28;20119;-73
2021/09/18 03:29:58;;;;;;;61.33;30.52;;;;;;;13.37;92.97;101737.56;5054252;28;20025;-60
2021/09/18 03:32:23;;;;;;;62.03;31.98;;;;;;;13.37;93.24;101730.44;5053668;28;20029;-59
2021/09/18 03:34:49;;;;;;;56.53;30.65;;;;;;;13.39;93.19;101733.06;5054310;28;20108;-59
2021/09/18 03:37:14;;;;;;;52.15;27.52;;;;;;;13.39;92.97;101733.91;5053455;28;20542;-60
2021/09/18 03:39:39;;;;;;;55.00;30.13;;;;;;;13.36;92.72;101742.00;5054367;28;20036;-59
2021/09/18 03:42:05;;;;;;;55.92;29.58;;;;;;;13.34;92.80;101742.97;5053655;28;20111;-59
2021/09/18 03:44:30;;;;;;;52.85;29.08;;;;;;;13.30;92.75;101744.03;5053975;28;20039;-64
2021/09/18 03:46:55;;;;;;;57.03;30.13;;;;;;;13.26;93.16;101752.16;5053702;28;20503;-68
2021/09/18 03:49:21;;;;;;;55.05;28.10;;;;;;;13.24;93.10;101750.50;5053974;28;20111;-59
2021/09/18 03:51:46;;;;;;;55.78;29.13;;;;;;;13.25;93.57;101745.09;5053755;28;20055;-59
2021/09/18 03:54:11;;;;;;;55.08;29.05;;;;;;;13.27;93.00;101745.03;5053410;28;20029;-60
2021/09/18 03:56:37;;;;;;;57.15;29.95;;;;;;;13.26;93.90;101746.84;5053456;28;20024;-59
2021/09/18 03:59:02;;;;;;;56.53;30.60;;;;;;;13.24;93.26;101743.34;5053853;28;20028;-69
2021/09/18 04:01:28;;;;;;;53.92;29.30;;;;;;;13.24;93.18;101743.34;5053635;28;20609;-59
2021/09/18 04:03:53;;;;;;;52.70;28.27;;;;;;;13.24;93.38;101748.69;5053016;28;20433;-59
2021/09/18 04:06:18;;;;;;;55.33;29.50;;;;;;;13.23;93.25;101749.59;5053624;28;20029;-59
2021/09/18 04:08:45;;;;;;;53.00;28.27;;;;;;;13.23;93.36;101749.59;5051588;28;20108;-60
2021/09/18 04:11:10;;;;;;;50.60;27.60;;;;;;;13.26;93.33;101761.91;5044560;28;20393;-64
2021/09/18 04:13:36;;;;;;;56.28;28.63;;;;;;;13.26;93.34;101754.81;5053273;28;20021;-59
2021/09/18 04:16:01;;;;;;;48.33;27.13;;;;;;;13.28;92.81;101755.59;5053356;28;20427;-59
2021/09/18 04:18:26;;;;;;;47.20;26.38;;;;;;;13.30;92.59;101752.91;5052638;28;20028;-62
2021/09/18 04:20:52;;;;;;;49.40;27.27;;;;;;;13.29;92.42;101756.47;5053101;28;20519;-59
2021/09/18 04:23:17;;;;;;;51.20;28.70;;;;;;;13.25;92.91;101752.22;5053262;28;20507;-61
2021/09/18 04:25:42;;;;;;;49.75;27.30;;;;;;;13.27;92.89;101761.88;5052691;28;20465;-59
2021/09/18 04:28:07;;;;;;;54.35;29.65;;;;;;;13.27;92.53;101767.19;5052726;28;20031;-63
2021/09/18 04:30:33;;;;;;;52.85;28.52;;;;;;;13.28;92.73;101760.06;5053614;28;20028;-59
2021/09/18 04:32:58;;;;;;;56.03;29.90;;;;;;;13.32;92.63;101758.16;5053224;28;20028;-65
2021/09/18 04:35:24;;;;;;;58.75;29.52;;;;;;;13.37;92.81;101761.50;5052375;28;20031;-59
2021/09/18 04:37:49;;;;;;;52.75;27.98;;;;;;;13.40;92.74;101764.91;5053093;28;20060;-59
2021/09/18 04:40:14;;;;;;;54.28;30.13;;;;;;;13.45;92.92;101767.38;5052712;28;20025;-67
2021/09/18 04:42:40;;;;;;;56.25;28.85;;;;;;;13.46;92.86;101755.78;5052731;28;20124;-59
2021/09/18 04:45:06;;;;;;;54.90;29.98;;;;;;;13.51;93.31;101769.78;5052886;28;20370;-73
2021/09/18 04:47:31;;;;;;;53.92;30.13;;;;;;;13.57;93.02;101761.53;5052081;28;20035;-59
2021/09/18 04:49:56;;;;;;;61.85;31.65;;;;;;;13.59;93.36;101770.31;5052087;28;20037;-59
2021/09/18 04:52:22;;;;;;;66.53;33.55;;;;;;;13.68;93.60;101765.53;5052720;28;20514;-59
2021/09/18 04:54:47;;;;;;;64.85;33.45;;;;;;;13.82;93.68;101776.44;5052674;28;20044;-59
2021/09/18 04:57:12;;;;;;;65.72;31.75;;;;;;;13.93;93.72;101776.84;5052400;28;20021;-65
2021/09/18 04:59:38;;;;;;;64.80;34.42;;;;;;;13.99;93.43;101774.81;5052210;28;20382;-64
2021/09/18 05:02:03;;;;;;;60.15;32.03;;;;;;;14.00;92.75;101776.56;5052452;28;20389;-64
2021/09/18 05:04:28;;;;;;;59.45;32.10;;;;;;;13.99;92.29;101780.16;5052883;28;20112;-59
2021/09/18 05:06:53;;;;;;;61.42;33.13;;;;;;;13.98;91.84;101773.09;5052055;28;20100;-65
2021/09/18 05:09:19;;;;;;;64.63;32.80;;;;;;;13.95;92.63;101787.41;5052239;28;20397;-69
2021/09/18 05:11:44;;;;;;;60.10;31.48;;;;;;;13.98;92.39;101784.63;5051304;28;20473;-59
2021/09/18 05:14:09;;;;;;;58.28;30.13;;;;;;;14.01;92.21;101784.47;5051848;28;20817;-62
2021/09/18 05:16:35;;;;;;;55.78;30.77;;;;;;;14.04;92.44;101776.38;5052929;28;20021;-60
2021/09/18 05:19:00;;;;;;;57.45;30.40;;;;;;;14.04;92.01;101784.38;5052173;28;20025;-59
2021/09/18 05:21:26;;;;;;;57.63;30.13;;;;;;;14.05;91.84;101791.44;5050962;28;20512;-58
2021/09/18 05:23:52;;;;;;;56.22;30.40;;;;;;;14.05;91.89;101794.09;5051569;28;20151;-60
2021/09/18 05:26:17;;;;;;;63.08;32.83;;;;;;;14.03;92.27;101800.41;5051588;28;20490;-58
2021/09/18 05:28:43;;;;;;;57.35;31.83;;;;;;;14.07;92.36;101802.84;5051592;28;20028;-59
2021/09/18 05:31:08;;;;;;;57.70;31.90;;;;;;;14.08;92.46;101791.28;5051675;28;20469;-59
2021/09/18 05:33:33;;;;;;;66.82;33.38;;;;;;;14.07;92.24;101794.00;5042744;28;20061;-60
2021/09/18 05:35:59;;;;;;;67.22;34.47;;;;;;;14.06;92.50;101806.44;5034308;28;20116;-63
2021/09/18 05:38:24;;;;;;;61.70;32.53;;;;;;;14.07;92.46;101802.84;5042772;28;20029;-59
2021/09/18 05:40:50;;;;;;;63.95;33.83;;;;;;;14.12;92.74;101809.78;5040952;28;20033;-60
2021/09/18 05:43:15;;;;;;;62.75;33.25;;;;;;;14.15;92.64;101801.66;5041684;28;20577;-59
2021/09/18 05:45:40;;;;;;;65.05;33.63;;;;;;;14.17;92.58;101803.31;5052640;28;20029;-59
2021/09/18 05:48:06;;;;;;;66.88;33.58;;;;;;;14.19;92.87;101806.75;5051591;28;20115;-72
2021/09/18 05:50:32;;;;;;;58.95;31.73;;;;;;;14.24;92.72;101799.44;5052304;28;20033;-73
2021/09/18 05:52:58;;;;;;;64.32;33.60;;;;;;;14.29;92.57;101807.22;5051421;28;20164;-74
2021/09/18 05:55:23;;;;;;;65.97;34.15;;;;;;;14.32;92.46;101814.22;5051381;28;20166;-75
2021/09/18 05:57:48;;;;;;;58.35;32.53;;;;;;;14.36;92.29;101808.69;5051998;28;20029;-68
2021/09/18 06:00:14;;;;;;;57.22;31.20;;;;;;;14.42;92.04;101808.41;5051920;28;20029;-76
2021/09/18 06:02:41;;;;;;;64.47;32.33;;;;;;;14.46;92.00;101809.13;5051736;28;20043;-71
2021/09/18 06:05:08;;;;;;;66.30;34.28;;;;;;;14.44;92.01;101813.66;5047093;28;20468;-73
2021/09/18 06:07:34;;;;;;;66.00;33.92;;;;;;;14.47;92.22;101812.66;5050500;28;20063;-72
2021/09/18 06:09:59;;;;;;;64.90;34.90;;;;;;;14.50;92.46;101821.41;5050746;28;20024;-68
2021/09/18 06:12:24;;;;;;;61.47;33.63;;;;;;;14.56;92.37;101820.22;5052264;28;20036;-75
2021/09/18 06:14:50;;;;;;;65.88;34.33;;;;;;;14.61;92.02;101817.38;5037036;28;20021;-69
2021/09/18 06:17:15;;;;;;;69.22;34.28;;;;;;;14.64;91.77;101819.88;5041516;28;20346;-74
2021/09/18 06:19:40;;;;;;;67.25;35.70;;;;;;;14.69;91.92;101821.44;5051680;28;20017;-75
2021/09/18 06:22:06;;;;;;;62.58;35.22;;;;;;;14.77;91.82;101817.53;5046782;28;20919;-75
2021/09/18 06:24:31;;;;;;;66.43;35.13;;;;;;;14.87;91.79;101821.50;5050253;28;20053;-68
2021/09/18 06:26:56;;;;;;;59.85;34.35;;;;;;;14.98;91.28;101813.84;5048654;28;20420;-61
2021/09/18 06:29:22;;;;;;;59.10;33.65;;;;;;;15.06;90.54;101821.50;5049261;28;20112;-68
2021/09/18 06:31:47;;;;;;;53.30;31.75;;;;;;;15.08;89.73;101819.63;5048871;28;20032;-66
2021/09/18 06:34:12;;;;;;;59.03;33.45;;;;;;;15.11;89.93;101824.78;5049602;28;20139;-69
2021/09/18 06:36:38;;;;;;;59.78;32.95;;;;;;;15.14;90.04;101819.31;5049098;28;20036;-61
2021/09/18 06:39:03;;;;;;;59.55;33.58;;;;;;;15.17;90.20;101823.66;5047920;28;20160;-62
2021/09/18 06:41:28;;;;;;;58.50;32.05;;;;;;;15.25;90.17;101829.47;5051091;28;20036;-68
2021/09/18 06:43:54;;;;;;;59.85;33.20;;;;;;;15.31;89.68;101825.66;5051021;28;20032;-62
2021/09/18 06:46:19;;;;;;;61.83;32.65;;;;;;;15.37;89.71;101820.88;5052266;28;20092;-69
2021/09/18 06:48:44;;;;;;;57.20;32.90;;;;;;;15.47;88.97;101823.94;5052714;28;20052;-67
2021/09/18 06:51:10;;;;;;;52.13;31.30;;;;;;;15.54;88.71;101829.84;5044966;28;20155;-61
2021/09/18 06:53:35;;;;;;;59.33;33.40;;;;;;;15.61;88.56;101833.91;5048860;28;20032;-65
2021/09/18 06:56:00;;;;;;;56.60;33.30;;;;;;;15.65;88.23;101832.84;5051438;28;20025;-61
2021/09/18 06:58:26;;;;;;;55.70;32.55;;;;;;;15.67;88.06;101830.09;5052276;28;20142;-61
2021/09/18 07:00:51;;;;;;;56.05;32.47;;;;;;;15.68;88.02;101832.69;5051732;28;20105;-62
2021/09/18 07:03:16;;;;;;;61.63;34.13;;;;;;;15.69;87.98;101834.41;5052051;28;20083;-61
2021/09/18 07:05:42;;;;;;;61.40;34.35;;;;;;;15.76;88.02;101839.44;5051509;28;20067;-66
2021/09/18 07:08:07;;;;;;;56.58;32.72;;;;;;;15.85;87.05;101841.66;5050978;28;20036;-62
2021/09/18 07:10:33;;;;;;;51.50;32.38;;;;;;;15.93;86.16;101841.28;5051361;28;20033;-61
2021/09/18 07:12:58;;;;;;;53.67;30.58;;;;;;;16.01;86.29;101833.72;5050473;28;20437;-63
2021/09/18 07:15:24;;;;;;;50.25;30.90;;;;;;;16.10;85.58;101843.94;5049158;28;20033;-62
2021/09/18 07:17:50;;;;;;;48.35;29.13;;;;;;;16.19;85.49;101835.44;5044141;28;20207;-61
2021/09/18 07:20:15;;;;;;;49.15;27.65;;;;;;;16.26;84.90;101837.78;5050045;28;20410;-61
2021/09/18 07:22:40;;;;;;;45.08;28.08;;;;;;;16.22;84.24;101842.44;5051199;28;20170;-61
2021/09/18 07:25:07;;;;;;;40.72;26.92;;;;;;;16.23;85.05;101846.84;5051102;28;20028;-58
2021/09/18 07:27:33;;;;;;;45.25;27.63;;;;;;;16.27;84.34;101844.88;5050272;28;20064;-59
2021/09/18 07:29:58;;;;;;;47.45;28.67;;;;;;;16.29;84.85;101841.16;5046822;28;20399;-67
2021/09/18 07:32:24;;;;;;;46.30;28.10;;;;;;;16.33;84.83;101842.72;5040209;28;20051;-60
2021/09/18 07:34:49;;;;;;;44.65;27.33;;;;;;;16.45;83.73;101838.53;5033551;28;20030;-68
2021/09/18 07:37:16;;;;;;;46.45;28.65;;;;;;;16.50;83.65;101840.97;5051869;28;20096;-61
2021/09/18 07:39:41;;;;;;;46.80;29.58;;;;;;;16.60;83.87;101839.53;5051056;28;20025;-63
2021/09/18 07:42:07;;;;;;;49.63;28.80;;;;;;;16.72;83.61;101846.00;5033826;28;20030;-68
2021/09/18 07:44:32;;;;;;;46.25;28.90;;;;;;;16.84;82.93;101853.34;5037230;28;20051;-69
2021/09/18 07:46:57;;;;;;;43.03;28.60;;;;;;;17.01;82.14;101848.91;5051036;28;20151;-62
2021/09/18 07:49:22;;;;;;;48.15;29.05;;;;;;;17.15;81.33;101846.31;5050820;28;20032;-63
2021/09/18 07:51:48;;;;;;;45.05;27.55;;;;;;;17.28;81.25;101849.16;5048942;28;20195;-69
2021/09/18 07:54:13;;;;;;;49.33;28.42;;;;;;;17.43;81.21;101844.75;5050693;28;20020;-67
2021/09/18 07:56:39;;;;;;;43.25;26.38;;;;;;;17.62;80.52;101854.38;5051517;28;20040;-70
2021/09/18 07:59:04;;;;;;;41.42;26.00;;;;;;;17.84;78.20;101852.16;5051405;28;20082;-61
2021/09/18 08:01:30;;;;;;;38.42;25.52;;;;;;;17.89;76.46;101849.22;5051274;28;20025;-64
2021/09/18 08:04:01;;;;;;;37.50;24.60;;;;;;;17.93;76.44;101853.47;5050650;28;20146;-65
2021/09/18 08:06:28;;;;;;;41.05;26.67;;;;;;;18.07;77.07;101849.97;5052185;28;20025;-60
2021/09/18 08:08:54;;;;;;;38.70;25.58;;;;;;;18.25;76.79;101852.44;5055051;28;20042;-62
2021/09/18 08:11:21;;;;;;;39.45;25.33;;;;;;;18.42;75.65;101860.31;5050023;28;20112;-58
2021/09/18 08:13:47;;;;;;;39.40;24.85;;;;;;;18.65;75.22;101861.56;5050761;28;20044;-63
2021/09/18 08:16:13;;;;;;;35.50;22.88;;;;;;;18.95;74.27;101863.31;5050427;28;20029;-74
2021/09/18 08:18:38;;;;;;;32.50;22.83;;;;;;;19.31;73.42;101866.41;5049979;28;20021;-72
2021/09/18 08:21:04;;;;;;;35.50;22.77;;;;;;;19.64;70.92;101865.09;5048523;28;20187;-74
2021/09/18 08:23:30;;;;;;;34.35;22.40;;;;;;;19.89;69.71;101858.13;5047788;28;20091;-74
2021/09/18 08:25:55;;;;;;;33.35;21.27;;;;;;;20.10;70.03;101853.97;5049885;28;20044;-73
2021/09/18 08:28:21;;;;;;;36.50;23.20;;;;;;;20.20;68.11;101856.84;5049889;28;20341;-73
2021/09/18 08:30:46;;;;;;;32.78;21.75;;;;;;;20.26;67.85;101859.13;5050450;28;20128;-73
2021/09/18 08:33:12;;;;;;;37.88;23.75;;;;;;;20.33;67.47;101862.22;5050060;28;20028;-70
2021/09/18 08:35:37;;;;;;;33.58;22.48;;;;;;;20.39;67.55;101855.56;5049370;28;20038;-70
2021/09/18 08:38:02;;;;;;;33.95;23.02;;;;;;;20.30;67.74;101852.53;5049772;28;20200;-73
2021/09/18 08:40:28;;;;;;;30.77;21.30;;;;;;;20.29;67.05;101856.22;5049454;28;20033;-73
2021/09/18 08:42:54;;;;;;;35.50;22.65;;;;;;;20.33;66.98;101861.38;5050401;28;20036;-72
2021/09/18 08:45:20;;;;;;;34.85;22.00;;;;;;;20.28;67.38;101867.06;5050167;28;20032;-71
2021/09/18 08:47:46;;;;;;;31.13;21.77;;;;;;;20.22;66.57;101857.63;5049630;28;20033;-73
2021/09/18 08:50:16;;;;;;;33.33;23.15;;;;;;;20.25;66.95;101864.59;5049650;28;20105;-73
2021/09/18 08:52:42;;;;;;;31.55;22.17;;;;;;;20.21;67.07;101863.94;5035925;28;20423;-71
2021/09/18 08:55:07;;;;;;;34.17;22.73;;;;;;;20.27;67.13;101865.38;5033183;28;20124;-64
2021/09/18 08:57:33;;;;;;;33.38;22.50;;;;;;;20.37;66.57;101858.38;5049274;28;20131;-70
2021/09/18 08:59:58;;;;;;;31.70;21.88;;;;;;;20.55;65.69;101863.41;5050371;28;20039;-72
2021/09/18 09:02:27;;;;;;;29.73;20.30;;;;;;;21.03;64.56;101863.56;5049251;28;20029;-72
2021/09/18 09:05:03;;;;;;;27.83;19.73;;;;;;;21.70;61.94;101873.03;5049629;28;20021;-72
2021/09/18 09:07:29;;;;;;;28.27;20.67;;;;;;;22.07;58.83;101863.94;5049636;28;20055;-73
2021/09/18 09:09:59;;;;;;;29.17;20.50;;;;;;;21.99;59.88;101875.31;5049126;28;20460;-72
2021/09/18 09:12:31;;;;;;;27.73;20.33;;;;;;;21.95;58.90;101864.91;5049131;28;20112;-71
2021/09/18 09:14:59;;;;;;;27.70;19.88;;;;;;;21.86;60.46;101867.31;5049888;28;20112;-72
2021/09/18 09:17:26;;;;;;;27.98;19.23;;;;;;;21.88;60.47;101861.78;5048795;28;20178;-72
2021/09/18 09:19:53;;;;;;;28.77;20.02;;;;;;;21.78;60.80;101861.66;5049012;28;20446;-69
2021/09/18 09:22:42;;;;;;;28.17;19.95;;;;;;;22.67;57.74;101869.19;5048831;28;20060;-64
2021/09/18 09:25:32;;;;;;;29.48;20.05;;;;;;;23.72;55.62;101866.88;5049128;28;20085;-68
2021/09/18 09:28:20;;;;;;;25.50;19.00;;;;;;;24.53;52.00;101860.00;5046131;28;20112;-68
2021/09/18 09:30:46;;;;;;;26.70;20.33;;;;;;;24.84;51.71;101862.72;5049513;28;20194;-69
2021/09/18 09:33:12;;;;;;;27.20;18.83;;;;;;;25.48;50.78;101861.44;5047699;28;20153;-71
2021/09/18 09:35:38;;;;;;;26.65;18.80;;;;;;;26.20;48.38;101861.09;5049648;28;20032;-71
2021/09/18 09:38:05;;;;;;;29.80;20.13;;;;;;;26.66;46.32;101869.38;5049304;28;20380;-64
2021/09/18 09:40:38;;;;;;;22.60;16.52;;;;;;;27.12;45.35;101864.88;5047497;28;20029;-68
2021/09/18 09:43:05;;;;;;;22.52;16.80;;;;;;;27.29;45.01;101863.16;5041736;28;20165;-72
2021/09/18 09:45:31;;;;;;;25.05;19.45;;;;;;;27.51;44.03;101868.31;5049296;28;20429;-74
2021/09/18 09:48:19;;;;;;;26.00;19.92;;;;;;;27.43;45.08;101869.97;5047277;28;20480;-70
2021/09/18 09:50:56;;;;;;;27.88;19.42;;;;;;;27.51;43.79;101871.91;5049605;28;20028;-67
2021/09/18 09:53:27;;;;;;;25.23;18.23;;;;;;;27.81;43.91;101869.78;5049001;28;20025;-72
2021/09/18 09:55:53;;;;;;;24.95;18.95;;;;;;;28.27;42.12;101870.50;5048321;28;20028;-73
2021/09/18 09:58:18;;;;;;;23.98;18.55;;;;;;;28.37;41.01;101873.09;5048307;28;20032;-64
2021/09/18 10:00:50;;;;;;;24.13;18.50;;;;;;;28.12;41.92;101874.81;5047889;28;20056;-71
2021/09/18 10:03:19;;;;;;;26.92;18.15;;;;;;;28.55;40.27;101877.63;5042157;28;20462;-71
2021/09/18 10:05:45;;;;;;;25.17;18.48;;;;;;;28.29;41.60;101876.63;5047014;28;20048;-64
2021/09/18 10:08:12;;;;;;;21.23;15.52;;;;;;;28.72;40.28;101873.13;5049228;28;20043;-72
2021/09/18 10:10:40;;;;;;;25.00;17.73;;;;;;;28.62;40.01;101873.25;5043368;28;20024;-65
2021/09/18 10:13:07;;;;;;;21.23;16.27;;;;;;;29.02;40.19;101870.88;5049315;28;20120;-73
2021/09/18 10:15:33;;;;;;;22.17;16.60;;;;;;;29.31;38.69;101870.47;5051155;28;20036;-69
2021/09/18 10:18:01;;;;;;;26.35;17.38;;;;;;;29.43;38.05;101873.72;5051373;28;20033;-71
2021/09/18 10:23:14;;;;;;;18.95;15.38;;;;;;;29.83;37.98;101871.16;5046714;28;20045;-64
2021/09/18 10:25:44;;;;;;;20.20;13.90;;;;;;;29.59;37.04;101864.66;5049399;28;20132;-69
2021/09/18 10:28:13;;;;;;;16.17;12.52;;;;;;;29.32;35.56;101863.94;5038487;28;20123;-68
2021/09/18 10:31:11;;;;;;;19.25;14.95;;;;;;;28.84;38.52;101862.78;5042314;28;20040;-64
2021/09/18 10:33:45;;;;;;;17.13;12.32;;;;;;;28.90;37.23;101862.13;5052466;28;20065;-75
2021/09/18 10:36:17;;;;;;;19.35;14.52;;;;;;;29.22;38.84;101855.91;5052950;28;20051;-68
2021/09/18 10:38:45;;;;;;;16.17;12.63;;;;;;;29.46;37.76;101862.44;5052586;28;20060;-73
2021/09/18 10:41:12;;;;;;;17.85;13.50;;;;;;;29.65;37.25;101855.78;5052159;28;20057;-70
2021/09/18 10:43:43;;;;;;;17.95;13.02;;;;;;;29.42;36.87;101855.63;5052075;28;20106;-70
2021/09/18 10:46:30;;;;;;;16.80;11.60;;;;;;;29.40;36.46;101850.34;5052007;28;20028;-72
2021/09/18 10:48:57;;;;;;;14.07;11.18;;;;;;;29.24;37.76;101859.31;5052325;28;20033;-71
2021/09/18 10:51:34;;;;;;;17.27;13.10;;;;;;;29.36;38.35;101856.28;5040808;28;20060;-68
2021/09/18 10:54:05;;;;;;;14.77;12.00;;;;;;;29.78;36.61;101854.44;5048341;28;20520;-69
2021/09/18 10:57:03;;;;;;;14.43;10.65;;;;;;;30.29;35.79;101857.78;5052290;28;20462;-67
2021/09/18 10:59:39;;;;;;;10.45;8.38;;;;;;;30.47;33.47;101852.13;5038753;28;20021;-69
2021/09/18 11:02:29;;;;;;;206.77;22.95;;;;;;;29.95;35.91;101849.84;5043566;28;20098;-73
2021/09/18 11:04:55;;;;;;;13.77;10.95;;;;;;;29.52;36.18;101847.28;5048402;28;20028;-78
2021/09/18 11:07:39;;;;;;;12.75;8.30;;;;;;;30.18;35.17;101850.84;5053820;28;20094;-76
2021/09/18 11:10:12;;;;;;;11.32;8.52;;;;;;;30.48;35.06;101850.25;5060882;28;20020;-71